Time;durP1;ratioP1;P1;durP2;ratioP2;P2;SDS_P1;SDS_P2;PMS_P1;PMS_P2;Temp;Humidity;BMP_temperature;BMP_pressure;BME280_temperature;BME280_humidity;BME280_pressure;Samples;Min_cycle;Max_cycle;Signal;HPM_P1;HPM_P2
2021/07/24 00:01:01;;;;;;;10.33;6.87;;;;;;;18.71;70.45;100419.34;1651010;85;21538;-71
2021/07/24 00:03:28;;;;;;;12.23;6.93;;;;;;;18.68;70.86;100423.47;1661104;85;21542;-71
2021/07/24 00:05:55;;;;;;;11.93;7.33;;;;;;;18.65;71.13;100414.63;1664005;85;21118;-71
2021/07/24 00:08:22;;;;;;;9.60;6.83;;;;;;;18.64;71.37;100419.02;1657490;85;21462;-71
2021/07/24 00:10:49;;;;;;;11.17;6.90;;;;;;;18.61;71.53;100419.64;1657920;86;20968;-72
2021/07/24 00:13:17;;;;;;;11.17;6.67;;;;;;;18.59;71.62;100416.45;1647837;85;21601;-71
2021/07/24 00:15:45;;;;;;;11.30;7.30;;;;;;;18.56;71.91;100422.48;1660860;85;21075;-71
2021/07/24 00:18:12;;;;;;;11.83;7.23;;;;;;;18.54;71.99;100425.52;1658047;85;21141;-71
2021/07/24 00:20:39;;;;;;;11.73;7.43;;;;;;;18.50;72.02;100428.05;1657144;85;21766;-71
2021/07/24 00:23:11;;;;;;;13.57;7.10;;;;;;;18.48;72.14;100422.14;1649964;85;21076;-71
2021/07/24 00:25:39;;;;;;;;;;;;;;;18.44;72.02;100423.89;1673804;84;21585;-71
2021/07/24 00:28:06;;;;;;;10.67;7.10;;;;;;;18.44;71.94;100417.69;1669903;84;20200;-71
2021/07/24 00:30:38;;;;;;;11.33;7.07;;;;;;;18.40;71.91;100422.92;1648879;85;21020;-71
2021/07/24 00:33:07;;;;;;;10.20;6.83;;;;;;;18.39;71.95;100421.87;1655629;85;21119;-71
2021/07/24 00:35:36;;;;;;;11.80;6.83;;;;;;;18.36;71.99;100424.67;1668226;84;21102;-72
2021/07/24 00:38:03;;;;;;;9.53;6.50;;;;;;;18.34;71.87;100426.08;1658268;85;21044;-71
2021/07/24 00:40:31;;;;;;;10.27;6.73;;;;;;;18.30;71.78;100425.91;1659176;85;21071;-72
2021/07/24 00:42:58;;;;;;;10.50;7.27;;;;;;;18.28;71.75;100426.20;1624255;87;20993;-71
2021/07/24 00:45:26;;;;;;;10.50;6.50;;;;;;;18.24;72.08;100426.59;1655768;85;21619;-71
2021/07/24 00:47:55;;;;;;;10.57;7.00;;;;;;;18.20;72.44;100424.27;1649857;85;21090;-71
2021/07/24 00:50:24;;;;;;;10.90;7.00;;;;;;;18.15;72.51;100427.66;1636593;86;21134;-70
2021/07/24 00:52:53;;;;;;;11.70;7.63;;;;;;;18.11;72.47;100428.84;1665775;85;21082;-70
2021/07/24 00:55:20;;;;;;;11.90;7.13;;;;;;;18.07;72.68;100433.83;1655612;86;21003;-71
2021/07/24 00:57:48;;;;;;;8.60;6.83;;;;;;;18.02;72.63;100430.13;1659143;85;21113;-71
2021/07/24 01:00:16;;;;;;;9.53;6.50;;;;;;;17.99;72.67;100430.75;1650279;85;21049;-71
2021/07/24 01:02:43;;;;;;;10.73;7.13;;;;;;;17.96;72.86;100431.36;1661284;84;21038;-71
2021/07/24 01:05:11;;;;;;;8.90;6.83;;;;;;;17.93;72.98;100429.30;1662369;84;21573;-71
2021/07/24 01:07:41;;;;;;;10.37;7.33;;;;;;;17.89;73.23;100431.01;1646688;85;21042;-71
2021/07/24 01:10:10;;;;;;;10.55;7.30;;;;;;;17.86;73.34;100431.62;1654769;85;21032;-71
2021/07/24 01:12:39;;;;;;;9.00;7.13;;;;;;;17.84;73.54;100429.80;1635826;86;21119;-71
2021/07/24 01:15:07;;;;;;;12.83;7.50;;;;;;;17.83;73.65;100423.34;1660693;85;21052;-71
2021/07/24 01:17:34;;;;;;;10.63;7.30;;;;;;;17.82;73.64;100425.25;1668088;85;21012;-70
2021/07/24 01:20:05;;;;;;;12.00;7.23;;;;;;;17.80;73.68;100430.97;1651987;85;21163;-71
2021/07/24 01:22:33;;;;;;;15.53;8.20;;;;;;;17.81;73.68;100426.36;1631211;86;21153;-71
2021/07/24 01:25:00;;;;;;;12.00;7.00;;;;;;;17.80;73.81;100430.15;1672332;84;21138;-71
2021/07/24 01:27:27;;;;;;;10.07;7.40;;;;;;;17.80;73.98;100432.85;1640995;85;21066;-71
2021/07/24 01:29:56;;;;;;;10.70;7.83;;;;;;;17.79;74.25;100432.06;1658672;85;21337;-71
2021/07/24 01:32:24;;;;;;;11.87;7.33;;;;;;;17.78;74.40;100435.08;1646902;85;21645;-70
2021/07/24 01:34:52;;;;;;;12.53;8.03;;;;;;;17.76;74.69;100428.62;1653707;85;21069;-71
2021/07/24 01:37:21;;;;;;;11.93;8.07;;;;;;;17.75;74.93;100432.41;1661731;86;21058;-71
2021/07/24 01:39:49;;;;;;;11.07;7.47;;;;;;;17.74;75.03;100435.43;1657580;85;21603;-71
2021/07/24 01:42:18;;;;;;;12.33;7.97;;;;;;;17.72;75.08;100440.33;1640697;85;21122;-72
2021/07/24 01:44:48;;;;;;;11.28;7.78;;;;;;;17.69;75.17;100437.69;1668388;85;21719;-72
2021/07/24 01:47:17;;;;;;;10.07;7.47;;;;;;;17.66;75.28;100434.80;1665928;84;21938;-72
2021/07/24 01:52:48;;;;;;;10.13;7.80;;;;;;;17.62;75.60;100441.93;1666371;84;21070;-71
2021/07/24 01:55:26;;;;;;;13.10;7.83;;;;;;;17.57;75.96;100436.91;1646147;85;21027;-71
2021/07/24 01:57:58;;;;;;;11.10;8.20;;;;;;;17.53;76.25;100437.25;1659990;85;20973;-71
2021/07/24 02:00:26;;;;;;;12.30;8.10;;;;;;;17.53;76.51;100442.65;1688256;83;21794;-71
2021/07/24 02:02:58;;;;;;;13.57;8.30;;;;;;;17.51;76.69;100438.68;1671172;85;21027;-71
2021/07/24 02:05:43;;;;;;;11.03;8.10;;;;;;;17.47;76.79;100439.84;1651544;85;21462;-72
2021/07/24 02:08:11;;;;;;;10.93;8.17;;;;;;;17.46;76.88;100438.23;1619101;86;21195;-71
2021/07/24 02:10:40;;;;;;;13.80;8.53;;;;;;;17.44;77.10;100443.16;1643212;85;21164;-71
2021/07/24 02:13:07;;;;;;;11.23;8.20;;;;;;;17.42;77.19;100444.56;1650164;85;21111;-71
2021/07/24 02:15:37;;;;;;;10.40;7.60;;;;;;;17.40;77.12;100442.15;1658314;85;21051;-71
2021/07/24 02:18:05;;;;;;;12.63;7.60;;;;;;;17.38;77.22;100440.32;1657537;84;21593;-72
2021/07/24 02:20:32;;;;;;;11.13;7.47;;;;;;;17.35;77.19;100441.72;1659684;85;21568;-71
2021/07/24 02:23:00;;;;;;;10.37;7.83;;;;;;;17.33;77.26;100438.52;1658990;85;21084;-71
2021/07/24 02:25:28;;;;;;;12.73;7.90;;;;;;;17.32;77.35;100445.59;1660072;85;21908;-71
2021/07/24 02:27:55;;;;;;;9.57;7.10;;;;;;;17.29;77.37;100442.14;1657935;85;21206;-71
2021/07/24 02:30:23;;;;;;;10.83;7.47;;;;;;;17.26;77.39;100442.75;1655877;85;21055;-71
2021/07/24 02:32:49;;;;;;;11.77;7.47;;;;;;;17.20;77.36;100438.01;1671737;84;21102;-71
2021/07/24 02:35:16;;;;;;;11.70;7.67;;;;;;;17.18;77.49;100445.62;1649929;85;21127;-71
2021/07/24 02:38:02;;;;;;;11.90;8.13;;;;;;;17.17;77.84;100443.22;1658352;85;22005;-71
2021/07/24 02:40:30;;;;;;;10.60;7.87;;;;;;;17.14;78.14;100439.77;1644182;85;21613;-72
2021/07/24 02:42:59;;;;;;;11.67;7.57;;;;;;;17.11;78.41;100447.39;1663413;84;21185;-71
2021/07/24 02:45:26;;;;;;;15.20;7.80;;;;;;;17.10;78.72;100442.28;1659502;85;21062;-71
2021/07/24 02:47:55;;;;;;;12.30;7.13;;;;;;;17.06;78.99;100447.48;1661062;85;21118;-71
2021/07/24 02:50:22;;;;;;;11.20;7.13;;;;;;;17.04;79.12;100448.33;1651975;86;21178;-71
2021/07/24 02:52:49;;;;;;;11.47;7.43;;;;;;;17.01;79.27;100446.27;1667619;84;21462;-71
2021/07/24 02:55:16;;;;;;;10.40;7.17;;;;;;;17.00;79.38;100450.05;1656737;85;21062;-71
2021/07/24 02:57:43;;;;;;;10.40;7.17;;;;;;;16.97;79.48;100447.95;1664713;85;21193;-71
2021/07/24 03:00:10;;;;;;;13.23;7.87;;;;;;;16.98;79.50;100450.91;1654258;85;21187;-71
2021/07/24 03:02:37;;;;;;;9.50;7.10;;;;;;;16.99;79.56;100451.16;1656341;85;21146;-71
2021/07/24 03:05:04;;;;;;;10.70;7.20;;;;;;;17.01;79.75;100450.84;1655560;85;21164;-71
2021/07/24 03:07:31;;;;;;;9.97;7.27;;;;;;;17.03;79.72;100450.79;1661148;85;21085;-71
2021/07/24 03:09:58;;;;;;;13.23;7.50;;;;;;;17.07;79.65;100452.33;1676415;85;21134;-71
2021/07/24 03:12:27;;;;;;;9.90;7.73;;;;;;;17.09;79.67;100453.63;1658989;85;21066;-70
2021/07/24 03:14:54;;;;;;;9.63;7.40;;;;;;;17.13;79.76;100453.03;1629556;86;21181;-71
2021/07/24 03:17:21;;;;;;;11.17;7.37;;;;;;;17.15;79.96;100452.98;1676355;83;21115;-71
2021/07/24 03:19:49;;;;;;;9.43;7.27;;;;;;;17.17;80.05;100458.86;1672405;84;21102;-71
2021/07/24 03:22:16;;;;;;;10.03;6.97;;;;;;;17.20;79.87;100456.11;1660669;85;21177;-71
2021/07/24 03:24:44;;;;;;;9.50;6.93;;;;;;;17.24;80.03;100455.74;1650321;85;21002;-71
2021/07/24 03:27:11;;;;;;;11.40;7.10;;;;;;;17.26;79.92;100458.95;1647360;85;21516;-71
2021/07/24 03:29:37;;;;;;;10.50;7.37;;;;;;;17.29;79.94;100461.04;1649440;86;21086;-70
2021/07/24 03:32:05;;;;;;;10.97;7.27;;;;;;;17.32;79.91;100459.08;1659807;85;21157;-69
2021/07/24 03:34:33;;;;;;;8.47;7.47;;;;;;;17.35;79.85;100462.53;1652809;85;21163;-69
2021/07/24 03:37:00;;;;;;;11.63;7.30;;;;;;;17.39;79.60;100461.36;1660305;86;21576;-69
2021/07/24 03:39:27;;;;;;;9.57;7.07;;;;;;;17.44;79.36;100461.23;1660204;85;21331;-70
2021/07/24 03:41:53;;;;;;;10.70;7.80;;;;;;;17.49;79.02;100464.63;1649481;85;21437;-69
2021/07/24 03:44:20;;;;;;;10.13;7.40;;;;;;;17.52;78.50;100465.92;1657554;85;21127;-69
2021/07/24 03:46:47;;;;;;;9.97;7.27;;;;;;;17.59;77.88;100468.98;1658836;85;21138;-71
2021/07/24 03:49:14;;;;;;;9.07;6.90;;;;;;;17.68;77.60;100473.12;1671199;84;21098;-71
2021/07/24 03:51:41;;;;;;;10.20;7.03;;;;;;;17.74;77.28;100475.95;1656658;85;21805;-71
2021/07/24 03:54:08;;;;;;;10.87;7.57;;;;;;;17.81;76.77;100477.70;1656783;85;21547;-70
2021/07/24 03:56:35;;;;;;;9.93;6.70;;;;;;;17.89;76.53;100474.24;1660846;85;20956;-70
2021/07/24 03:59:02;;;;;;;8.57;7.20;;;;;;;17.96;76.06;100480.56;1665779;85;21606;-71
2021/07/24 04:01:30;;;;;;;9.33;6.87;;;;;;;18.03;75.51;100479.04;1649913;85;21511;-71
2021/07/24 04:03:56;;;;;;;11.37;7.60;;;;;;;18.10;75.31;100475.08;1666047;85;22198;-71
2021/07/24 04:06:27;;;;;;;8.40;6.50;;;;;;;18.16;74.69;100483.30;1660691;85;21756;-71
2021/07/24 04:08:56;;;;;;;11.17;7.67;;;;;;;18.21;73.85;100481.28;1660648;85;21102;-71
2021/07/24 04:11:23;;;;;;;9.77;7.57;;;;;;;18.24;73.33;100480.66;1647062;85;21613;-71
2021/07/24 04:13:50;;;;;;;11.03;7.43;;;;;;;18.30;73.32;100478.63;1655884;85;21641;-70
2021/07/24 04:16:18;;;;;;;8.43;6.97;;;;;;;18.38;73.33;100477.86;1663807;84;21160;-71
2021/07/24 04:18:46;;;;;;;9.27;6.93;;;;;;;18.46;72.53;100477.68;1686362;84;21062;-70
2021/07/24 04:21:13;;;;;;;9.57;7.20;;;;;;;18.55;71.98;100481.19;1671566;85;21074;-71
2021/07/24 04:23:41;;;;;;;10.50;7.40;;;;;;;18.62;71.12;100471.27;1655050;85;21095;-70
2021/07/24 04:26:08;;;;;;;7.33;6.10;;;;;;;18.70;70.84;100471.88;1654461;85;21205;-71
2021/07/24 04:28:35;;;;;;;8.63;6.57;;;;;;;18.78;70.48;100473.83;1654357;85;21105;-71
2021/07/24 04:31:02;;;;;;;10.77;6.97;;;;;;;18.86;70.55;100473.63;1641440;85;21118;-71
2021/07/24 04:33:29;;;;;;;9.10;6.90;;;;;;;18.92;69.93;100473.17;1640927;85;21098;-71
2021/07/24 04:35:56;;;;;;;11.33;7.50;;;;;;;19.01;69.67;100475.09;1652431;85;21491;-70
2021/07/24 04:38:23;;;;;;;9.43;7.13;;;;;;;19.11;69.53;100472.08;1658886;86;21138;-70
2021/07/24 04:40:50;;;;;;;10.33;7.40;;;;;;;19.19;68.64;100480.22;1666376;84;21645;-71
2021/07/24 04:43:16;;;;;;;9.80;6.97;;;;;;;19.25;68.33;100479.52;1660689;85;21003;-71
2021/07/24 04:45:44;;;;;;;10.53;7.37;;;;;;;19.30;67.86;100477.20;1653544;85;21039;-71
2021/07/24 04:48:11;;;;;;;9.77;6.60;;;;;;;19.35;68.10;100468.94;1658615;85;21564;-71
2021/07/24 04:50:44;;;;;;;10.37;7.90;;;;;;;19.45;68.22;100474.83;1648764;85;21079;-70
2021/07/24 04:53:12;;;;;;;9.03;7.00;;;;;;;19.57;67.75;100478.23;1661906;86;21861;-69
2021/07/24 04:55:39;;;;;;;11.83;7.10;;;;;;;19.63;67.06;100472.94;1655988;85;21011;-69
2021/07/24 04:58:07;;;;;;;9.67;7.43;;;;;;;19.72;66.79;100474.29;1655507;85;21561;-70
2021/07/24 05:00:45;;;;;;;10.70;7.07;;;;;;;19.76;66.24;100479.30;1654375;85;21654;-70
2021/07/24 05:03:13;;;;;;;10.60;7.73;;;;;;;19.81;66.11;100471.02;1652286;86;21547;-71
2021/07/24 05:05:41;;;;;;;10.93;6.57;;;;;;;19.87;66.04;100468.38;1644514;85;21757;-70
2021/07/24 05:08:08;;;;;;;8.57;6.93;;;;;;;19.97;65.97;100475.92;1678271;84;21075;-70
2021/07/24 05:10:36;;;;;;;11.67;7.80;;;;;;;20.04;65.88;100468.09;1687356;83;21113;-70
2021/07/24 05:13:03;;;;;;;12.20;7.23;;;;;;;20.11;65.74;100475.19;1686478;85;21020;-70
2021/07/24 05:15:29;;;;;;;9.60;7.20;;;;;;;20.20;65.84;100473.23;1679684;83;21027;-70
2021/07/24 05:17:56;;;;;;;10.80;7.30;;;;;;;20.31;65.40;100478.55;1677433;83;22127;-69
2021/07/24 05:20:29;;;;;;;11.10;7.03;;;;;;;20.38;64.92;100473.98;1677861;85;21522;-70
2021/07/24 05:22:52;;;;;;;11.23;7.50;;;;;;;20.49;64.89;100479.84;1655348;84;21039;-69
2021/07/24 05:25:19;;;;;;;9.90;7.00;;;;;;;20.59;64.46;100476.80;1653483;85;21011;-70
2021/07/24 05:27:45;;;;;;;9.17;6.60;;;;;;;20.67;64.32;100477.33;1657465;85;21147;-70
2021/07/24 05:30:14;;;;;;;10.70;7.47;;;;;;;20.73;64.00;100467.89;1647166;86;21181;-71
2021/07/24 05:32:43;;;;;;;10.00;7.23;;;;;;;20.78;63.41;100469.05;1667211;84;21047;-71
2021/07/24 05:35:10;;;;;;;10.03;6.90;;;;;;;20.83;63.03;100470.79;1646087;85;21669;-70
2021/07/24 05:37:37;;;;;;;9.07;6.70;;;;;;;20.85;62.92;100467.95;1646321;84;22340;-70
2021/07/24 05:40:05;;;;;;;11.73;7.47;;;;;;;20.87;62.73;100470.36;1656457;85;21094;-70
2021/07/24 05:42:32;;;;;;;11.93;7.43;;;;;;;20.94;62.92;100473.91;1656663;85;21561;-70
2021/07/24 05:44:59;;;;;;;10.40;7.30;;;;;;;21.05;62.80;100469.11;1644724;85;21087;-70
2021/07/24 05:47:31;;;;;;;12.40;7.20;;;;;;;21.16;62.08;100468.19;1669074;84;21091;-69
2021/07/24 05:49:58;;;;;;;9.77;7.27;;;;;;;21.23;61.77;100472.52;1644116;85;21119;-70
2021/07/24 05:52:25;;;;;;;9.67;7.20;;;;;;;21.35;62.16;100475.09;1653454;85;21031;-69
2021/07/24 05:54:53;;;;;;;10.73;7.20;;;;;;;21.50;62.16;100478.58;1655389;85;21710;-70
2021/07/24 05:57:19;;;;;;;13.17;8.03;;;;;;;21.64;61.37;100479.09;1652849;85;21087;-71
2021/07/24 05:59:48;;;;;;;12.47;7.60;;;;;;;21.75;61.08;100478.11;1656072;85;21081;-71
2021/07/24 06:02:15;;;;;;;12.00;8.03;;;;;;;21.85;60.82;100478.27;1653663;85;21532;-71
2021/07/24 06:04:47;;;;;;;10.40;6.93;;;;;;;21.92;60.80;100477.97;1655631;85;21722;-71
2021/07/24 06:07:11;;;;;;;13.47;7.63;;;;;;;22.03;60.86;100474.82;1651864;85;21527;-70
2021/07/24 06:09:38;;;;;;;9.93;7.00;;;;;;;22.15;60.64;100476.22;1657395;85;21054;-73
2021/07/24 06:12:08;;;;;;;10.03;7.07;;;;;;;22.28;60.50;100477.04;1663439;85;21748;-70
2021/07/24 06:14:35;;;;;;;10.00;6.73;;;;;;;22.36;59.56;100474.23;1659898;85;21119;-70
2021/07/24 06:17:03;;;;;;;9.57;7.37;;;;;;;22.41;58.67;100471.88;1676254;83;21098;-69
2021/07/24 06:19:30;;;;;;;9.47;6.97;;;;;;;22.45;59.36;100475.50;1665726;84;21203;-70
2021/07/24 06:21:59;;;;;;;12.43;7.27;;;;;;;22.53;59.20;100479.23;1648989;85;21020;-70
2021/07/24 06:24:26;;;;;;;14.43;7.50;;;;;;;22.59;58.68;100485.48;1672915;84;21098;-70
2021/07/24 06:26:53;;;;;;;13.73;7.87;;;;;;;22.65;57.66;100481.40;1652734;85;21065;-70
2021/07/24 06:29:19;;;;;;;14.73;7.53;;;;;;;22.65;58.07;100481.40;1660275;85;21667;-70
2021/07/24 06:31:46;;;;;;;13.33;7.40;;;;;;;22.71;58.12;100479.25;1656409;85;21115;-71
2021/07/24 06:34:17;;;;;;;13.07;7.77;;;;;;;22.79;57.82;100477.54;1665641;85;21122;-72
2021/07/24 06:36:41;;;;;;;15.70;9.23;;;;;;;22.89;57.00;100478.44;1627552;85;21089;-71
2021/07/24 06:39:08;;;;;;;11.10;6.93;;;;;;;22.99;56.53;100481.30;1669836;85;20992;-70
2021/07/24 06:41:34;;;;;;;11.43;7.57;;;;;;;23.07;56.08;100482.55;1660171;85;21126;-72
2021/07/24 06:44:02;;;;;;;12.57;8.03;;;;;;;23.11;56.10;100482.08;1638786;86;21611;-71
2021/07/24 06:46:29;;;;;;;12.17;7.20;;;;;;;23.22;56.20;100487.05;1666915;84;21613;-72
2021/07/24 06:48:56;;;;;;;11.77;7.53;;;;;;;23.29;55.36;100474.99;1654714;85;21118;-73
2021/07/24 06:51:23;;;;;;;13.53;7.50;;;;;;;23.33;55.55;100478.06;1657035;85;21111;-71
2021/07/24 06:53:50;;;;;;;13.03;7.93;;;;;;;23.40;55.59;100480.20;1652318;85;21071;-71
2021/07/24 06:56:17;;;;;;;14.60;8.17;;;;;;;23.52;54.89;100482.87;1657337;85;21170;-79
2021/07/24 06:58:44;;;;;;;11.10;7.23;;;;;;;23.61;54.35;100480.80;1646794;85;21094;-81
2021/07/24 07:01:11;;;;;;;11.63;7.70;;;;;;;23.69;53.71;100478.30;1673964;84;21069;-81
2021/07/24 07:03:38;;;;;;;11.77;7.57;;;;;;;23.70;52.59;100480.69;1646995;86;21051;-79
2021/07/24 07:06:06;;;;;;;11.57;7.30;;;;;;;23.70;52.88;100480.69;1669429;84;21147;-81
2021/07/24 07:08:34;;;;;;;11.20;6.80;;;;;;;23.75;52.75;100481.00;1648966;85;21877;-82
2021/07/24 07:11:04;;;;;;;15.37;7.50;;;;;;;23.84;52.91;100485.73;1633550;85;21263;-81
2021/07/24 07:13:33;;;;;;;13.67;7.20;;;;;;;23.97;52.64;100486.47;1659379;84;21021;-80
2021/07/24 07:16:06;;;;;;;11.97;7.87;;;;;;;24.04;51.68;100481.98;1655460;85;21221;-81
2021/07/24 07:18:36;;;;;;;13.20;7.00;;;;;;;24.04;50.54;100485.30;1670565;84;21054;-75
2021/07/24 07:21:03;;;;;;;11.47;7.53;;;;;;;24.03;50.60;100478.26;1658529;85;21153;-71
2021/07/24 07:23:30;;;;;;;11.90;8.07;;;;;;;24.07;49.88;100485.38;1646331;84;21133;-71
2021/07/24 07:25:58;;;;;;;13.87;7.20;;;;;;;24.18;49.46;100480.77;1671197;85;21144;-71
2021/07/24 07:28:25;;;;;;;10.67;6.97;;;;;;;24.27;49.23;100481.41;1661333;84;21068;-72
2021/07/24 07:30:52;;;;;;;12.13;7.03;;;;;;;24.31;47.87;100480.91;1665693;85;21103;-71
2021/07/24 07:33:20;;;;;;;10.30;7.23;;;;;;;24.30;48.22;100485.58;1670347;85;21546;-71
2021/07/24 07:35:46;;;;;;;10.93;7.27;;;;;;;24.33;47.85;100488.19;1663268;84;21103;-71
2021/07/24 07:38:13;;;;;;;11.30;7.07;;;;;;;24.44;47.99;100482.44;1666786;84;21129;-71
2021/07/24 07:40:39;;;;;;;9.73;7.07;;;;;;;24.52;46.61;100492.98;1675739;84;21293;-71
2021/07/24 07:43:08;;;;;;;10.67;7.17;;;;;;;24.52;46.50;100490.25;1683971;84;21042;-71
2021/07/24 07:45:37;;;;;;;10.57;7.00;;;;;;;24.54;46.34;100485.22;1646238;84;21296;-71
2021/07/24 07:48:05;;;;;;;10.80;6.90;;;;;;;24.58;46.34;100488.84;1682482;84;21055;-71
2021/07/24 07:50:35;;;;;;;9.93;7.20;;;;;;;24.64;46.48;100480.58;1669460;85;21031;-71
2021/07/24 07:53:03;;;;;;;13.00;7.65;;;;;;;24.75;46.77;100487.11;1668834;85;21018;-71
2021/07/24 07:55:30;;;;;;;9.93;7.00;;;;;;;24.86;46.80;100483.25;1656712;85;21021;-71
2021/07/24 07:57:57;;;;;;;10.50;6.57;;;;;;;24.99;46.34;100490.19;1642063;85;21168;-70
2021/07/24 08:00:24;;;;;;;11.73;7.47;;;;;;;25.10;46.60;100485.53;1662313;85;21114;-71
2021/07/24 08:02:53;;;;;;;8.03;6.37;;;;;;;25.21;46.20;100492.85;1664303;84;21073;-71
2021/07/24 08:05:19;;;;;;;13.50;7.57;;;;;;;25.28;45.22;100484.02;1672226;85;21274;-71
2021/07/24 08:07:46;;;;;;;10.47;6.97;;;;;;;25.32;45.36;100488.97;1675119;84;21046;-72
2021/07/24 08:10:13;;;;;;;10.23;6.43;;;;;;;25.35;45.12;100488.84;1662633;85;21574;-72
2021/07/24 08:12:39;;;;;;;10.93;7.17;;;;;;;25.43;44.53;100489.98;1658816;84;21351;-72
2021/07/24 08:15:08;;;;;;;10.23;6.33;;;;;;;25.41;43.78;100486.05;1674287;85;21023;-72
2021/07/24 08:17:37;;;;;;;9.63;6.87;;;;;;;25.31;44.32;100481.93;1681434;83;21159;-71
2021/07/24 08:20:05;;;;;;;10.07;6.97;;;;;;;25.28;44.65;100490.84;1672205;84;21070;-72
2021/07/24 08:22:32;;;;;;;9.10;6.63;;;;;;;25.29;43.81;100491.05;1645691;85;21140;-71
2021/07/24 08:24:59;;;;;;;11.20;7.10;;;;;;;25.33;44.19;100489.18;1639046;85;21514;-72
2021/07/24 08:27:26;;;;;;;10.73;7.37;;;;;;;25.41;43.74;100484.09;1661628;85;21074;-72
2021/07/24 08:30:14;;;;;;;9.43;6.33;;;;;;;25.57;44.54;100496.89;1655093;85;21178;-72
2021/07/24 08:32:41;;;;;;;8.73;6.73;;;;;;;25.65;43.65;100491.80;1680321;83;21048;-71
2021/07/24 08:35:09;;;;;;;8.77;6.20;;;;;;;25.77;42.84;100487.55;1674857;83;21223;-71
2021/07/24 08:37:36;;;;;;;9.17;6.73;;;;;;;25.87;42.64;100488.35;1657566;83;21095;-71
2021/07/24 08:40:04;;;;;;;8.23;6.07;;;;;;;26.01;42.44;100492.50;1677639;83;21618;-72
2021/07/24 08:42:42;;;;;;;8.53;6.33;;;;;;;26.14;42.34;100491.97;1672640;84;21057;-72
2021/07/24 08:45:10;;;;;;;8.23;6.10;;;;;;;26.14;40.83;100485.70;1670614;84;21092;-72
2021/07/24 08:47:37;;;;;;;7.83;5.80;;;;;;;26.05;40.68;100485.93;1689199;84;21150;-72
2021/07/24 08:50:06;;;;;;;9.23;6.53;;;;;;;26.07;41.26;100489.11;1684147;83;21021;-70
2021/07/24 08:52:34;;;;;;;9.60;5.97;;;;;;;26.16;40.66;100482.03;1689531;83;21059;-71
2021/07/24 08:55:03;;;;;;;8.77;6.40;;;;;;;26.22;40.45;100473.71;1699359;83;21084;-71
2021/07/24 08:57:35;;;;;;;7.47;5.70;;;;;;;26.24;39.76;100476.09;1677140;84;21020;-71
2021/07/24 09:00:12;;;;;;;7.03;5.53;;;;;;;26.15;39.50;100475.75;1685610;83;22011;-70
2021/07/24 09:02:42;;;;;;;8.77;6.30;;;;;;;26.14;39.60;100485.70;1666673;83;21123;-70
2021/07/24 09:05:15;;;;;;;7.67;5.90;;;;;;;26.16;39.43;100486.93;1663996;84;21040;-70
2021/07/24 09:07:47;;;;;;;10.10;6.00;;;;;;;26.22;39.81;100486.03;1671947;84;21077;-70
2021/07/24 09:10:13;;;;;;;;;;;;;;;26.37;39.39;100484.34;1680605;83;20949;-71
2021/07/24 09:12:41;;;;;;;9.07;6.70;;;;;;;26.55;38.41;100486.02;1675493;84;21098;-72
2021/07/24 09:15:11;;;;;;;9.70;6.20;;;;;;;26.67;37.91;100485.83;1667387;84;21120;-72
2021/07/24 09:17:38;;;;;;;7.60;6.30;;;;;;;26.80;37.96;100485.05;1662832;84;21175;-71
2021/07/24 09:20:06;;;;;;;8.37;6.03;;;;;;;26.92;37.64;100487.58;1677445;83;21117;-72
2021/07/24 09:22:39;;;;;;;8.47;6.00;;;;;;;26.93;37.59;100477.41;1681872;83;20992;-70
2021/07/24 09:25:13;;;;;;;7.40;6.53;;;;;;;26.98;37.60;100483.92;1678690;83;21119;-71
2021/07/24 09:27:49;;;;;;;7.37;6.13;;;;;;;27.07;37.08;100484.45;1665178;84;21128;-72
2021/07/24 09:30:29;;;;;;;8.33;5.90;;;;;;;27.06;37.25;100483.66;1675916;83;21124;-71
2021/07/24 09:33:13;;;;;;;9.40;6.50;;;;;;;26.94;37.54;100477.02;1670232;84;21091;-72
2021/07/24 09:35:53;;;;;;;10.53;6.57;;;;;;;26.94;37.90;100477.61;1682078;84;21053;-72
2021/07/24 09:38:33;;;;;;;7.40;5.73;;;;;;;26.93;37.00;100474.66;1672814;84;21100;-72
2021/07/24 09:41:02;;;;;;;7.63;5.70;;;;;;;26.88;37.62;100472.46;1682369;83;21540;-71
2021/07/24 09:43:46;;;;;;;8.03;5.93;;;;;;;27.02;37.76;100474.61;1674859;84;21090;-72
2021/07/24 09:46:20;;;;;;;8.30;6.08;;;;;;;27.19;37.77;100474.66;1714334;81;21065;-72
2021/07/24 09:48:52;;;;;;;11.13;6.70;;;;;;;27.38;37.27;100475.66;1731324;83;21047;-70
2021/07/24 09:51:34;;;;;;;6.70;5.90;;;;;;;27.47;37.22;100478.33;1742530;80;21127;-70
2021/07/24 09:54:01;;;;;;;9.17;6.20;;;;;;;27.49;36.20;100477.97;1747768;81;20989;-71
2021/07/24 09:56:40;;;;;;;8.80;6.53;;;;;;;27.48;35.61;100473.66;1742803;81;21036;-69
2021/07/24 09:59:19;;;;;;;9.57;6.60;;;;;;;27.39;35.77;100467.08;1745888;81;21056;-71
2021/07/24 10:02:04;;;;;;;9.03;6.40;;;;;;;27.37;35.59;100477.63;1734765;80;21082;-71
2021/07/24 10:04:37;;;;;;;8.60;6.50;;;;;;;27.48;35.85;100466.22;1739837;81;21995;-71
2021/07/24 10:07:08;;;;;;;9.93;6.37;;;;;;;27.57;35.27;100468.64;1747810;81;21052;-70
2021/07/24 10:09:38;;;;;;;8.18;6.33;;;;;;;27.54;35.68;100464.72;1756970;81;21134;-71
2021/07/24 10:12:13;;;;;;;9.68;5.92;;;;;;;27.59;35.77;100465.74;1744963;80;21616;-70
2021/07/24 10:14:39;;;;;;;7.40;6.40;;;;;;;27.55;37.11;100470.99;1738369;81;21559;-70
2021/07/24 10:17:08;;;;;;;12.80;6.97;;;;;;;27.56;36.10;100478.83;1746509;81;21520;-70
2021/07/24 10:19:35;;;;;;;8.27;6.23;;;;;;;27.54;36.07;100473.51;1713757;81;21090;-70
2021/07/24 10:22:03;;;;;;;8.20;6.20;;;;;;;27.64;36.98;100472.05;1741101;80;21393;-70
2021/07/24 10:24:29;;;;;;;7.73;6.43;;;;;;;27.75;35.93;100466.91;1735669;81;21661;-71
2021/07/24 10:27:14;;;;;;;9.27;6.50;;;;;;;27.79;35.66;100468.34;1717153;81;21433;-71
2021/07/24 10:29:50;;;;;;;7.40;6.03;;;;;;;27.95;36.72;100463.41;1739283;81;22225;-70
2021/07/24 10:32:17;;;;;;;11.50;6.10;;;;;;;28.24;36.48;100466.42;1739328;80;21123;-70
2021/07/24 10:34:52;;;;;;;9.30;6.50;;;;;;;28.38;35.55;100461.63;1741531;81;21000;-71
2021/07/24 10:37:39;;;;;;;9.97;6.43;;;;;;;28.38;34.96;100458.88;1759797;81;21495;-71
2021/07/24 10:40:25;;;;;;;7.20;6.43;;;;;;;28.13;34.97;100461.41;1731034;81;21071;-70
2021/07/24 10:42:52;;;;;;;9.60;6.63;;;;;;;27.90;34.95;100467.07;1740306;80;21165;-70
2021/07/24 10:45:46;;;;;;;8.30;6.70;;;;;;;27.72;34.47;100468.23;1735957;81;21074;-70
2021/07/24 10:48:26;;;;;;;7.57;6.07;;;;;;;27.57;35.41;100472.77;1750159;81;21480;-71
2021/07/24 10:51:00;;;;;;;8.65;6.58;;;;;;;27.47;36.20;100463.23;1755526;81;21079;-71
2021/07/24 10:53:35;;;;;;;8.17;6.37;;;;;;;27.35;36.28;100471.15;1743013;80;21095;-70
2021/07/24 10:56:02;;;;;;;7.17;5.90;;;;;;;27.30;36.71;100470.09;1720168;81;21472;-70
2021/07/24 10:58:29;;;;;;;7.70;6.20;;;;;;;27.36;37.16;100471.34;1736764;81;21028;-70
2021/07/24 11:00:59;;;;;;;8.13;6.40;;;;;;;27.45;36.74;100471.66;1749831;81;21028;-70
2021/07/24 11:03:41;;;;;;;7.60;6.33;;;;;;;27.50;36.21;100469.94;1739911;80;21146;-71
2021/07/24 11:06:30;;;;;;;7.83;5.70;;;;;;;27.61;35.62;100459.90;1751659;81;21023;-71
2021/07/24 11:09:09;;;;;;;7.90;6.07;;;;;;;27.74;36.30;100459.84;1747398;81;21779;-72
2021/07/24 11:11:42;;;;;;;10.60;6.73;;;;;;;27.87;36.00;100460.95;1731312;82;21170;-70
2021/07/24 11:14:29;;;;;;;7.80;6.20;;;;;;;27.80;36.24;100455.59;1737278;80;21008;-71
2021/07/24 11:17:14;;;;;;;8.37;6.60;;;;;;;27.88;36.63;100448.84;1750054;81;21001;-70
2021/07/24 11:19:54;;;;;;;8.33;6.70;;;;;;;28.07;35.53;100455.49;1749416;81;21032;-70
2021/07/24 11:22:22;;;;;;;9.70;6.40;;;;;;;28.14;34.81;100455.55;1745651;81;21223;-70
2021/07/24 11:24:58;;;;;;;9.13;6.33;;;;;;;28.03;36.14;100451.91;1741341;81;21535;-72
2021/07/24 11:27:29;;;;;;;8.00;5.97;;;;;;;28.11;35.53;100451.41;1751676;81;21083;-71
2021/07/24 11:30:09;;;;;;;9.48;6.05;;;;;;;28.33;35.37;100448.23;1736065;81;21506;-71
2021/07/24 11:32:39;;;;;;;9.05;6.10;;;;;;;28.56;34.75;100446.08;1743929;81;21158;-71
2021/07/24 11:35:12;;;;;;;7.33;5.93;;;;;;;28.70;34.63;100450.31;1731912;81;21888;-71